createdAt,value
2018-06-05T00:02:37.142Z,2.40
2018-06-05T00:07:42.089Z,2.40
2018-06-05T00:12:46.898Z,2.00
2018-06-05T00:17:53.196Z,2.10
2018-06-05T00:22:57.927Z,1.90
2018-06-05T00:28:02.758Z,1.90
2018-06-05T00:33:10.124Z,1.95
2018-06-05T00:38:14.896Z,2.05
2018-06-05T00:43:19.636Z,2.70
2018-06-05T00:48:24.488Z,2.42
2018-06-05T00:59:03.978Z,2.77
2018-06-05T01:04:10.254Z,2.15
2018-06-05T01:10:18.904Z,2.77
2018-06-05T01:15:23.865Z,2.87
2018-06-05T01:20:28.998Z,2.55
2018-06-05T01:25:33.778Z,2.20
2018-06-05T01:30:38.579Z,2.55
2018-06-05T01:35:43.654Z,2.77
2018-06-05T01:40:48.594Z,2.80
2018-06-05T01:45:53.652Z,2.22
2018-06-05T01:50:58.330Z,2.83
2018-06-05T01:56:03.622Z,2.27
2018-06-05T02:01:08.258Z,2.37
2018-06-05T02:06:13.217Z,2.40
2018-06-05T02:11:18.907Z,2.72
2018-06-05T02:16:23.708Z,2.80
2018-06-05T02:21:28.716Z,2.92
2018-06-05T02:26:33.524Z,2.65
2018-06-05T02:31:38.291Z,2.37
2018-06-05T02:36:43.172Z,2.70
2018-06-05T02:41:48.206Z,2.72
2018-06-05T02:46:54.041Z,3.00
2018-06-05T02:51:58.762Z,3.58
2018-06-05T02:57:03.594Z,3.45
2018-06-05T03:02:08.524Z,3.37
2018-06-05T03:07:15.932Z,3.37
2018-06-05T03:12:20.821Z,3.42
2018-06-05T03:17:25.849Z,3.17
2018-06-05T03:22:30.784Z,3.40
2018-06-05T03:27:35.834Z,3.22
2018-06-05T03:32:40.755Z,3.80
2018-06-05T03:37:46.055Z,3.27
2018-06-05T03:42:51.448Z,3.50
2018-06-05T03:47:56.574Z,3.50
2018-06-05T03:53:01.460Z,4.15
2018-06-05T03:58:06.221Z,3.30
2018-06-05T04:03:10.928Z,3.40
2018-06-05T04:08:15.889Z,3.10
2018-06-05T04:13:20.588Z,3.10
2018-06-05T04:18:25.685Z,3.17
2018-06-05T04:23:30.424Z,3.10
2018-06-05T04:28:35.032Z,3.10
2018-06-05T04:33:39.652Z,3.37
2018-06-05T04:38:44.510Z,3.00
2018-06-05T04:43:49.935Z,2.98
2018-06-05T04:48:54.823Z,3.22
2018-06-05T04:53:59.619Z,4.22
2018-06-05T04:59:04.385Z,4.17
2018-06-05T05:04:09.325Z,4.70
2018-06-05T05:09:14.238Z,6.08
2018-06-05T05:14:20.629Z,6.65
2018-06-05T05:19:25.863Z,6.70
2018-06-05T05:24:53.937Z,6.80
2018-06-05T05:29:58.587Z,6.58
2018-06-05T05:35:03.334Z,6.50
2018-06-05T05:40:08.104Z,7.03
2018-06-05T05:45:12.710Z,6.47
2018-06-05T05:50:17.366Z,5.95
2018-06-05T05:55:22.129Z,5.70
2018-06-05T06:00:26.920Z,5.87
2018-06-05T06:05:31.734Z,5.58
2018-06-05T06:10:36.498Z,5.05
2018-06-05T06:15:41.188Z,5.90
2018-06-05T06:20:46.057Z,5.62
2018-06-05T06:25:50.768Z,5.30
2018-06-05T06:30:55.613Z,5.70
2018-06-05T06:36:01.182Z,6.30
2018-06-05T06:41:05.800Z,6.08
2018-06-05T06:46:10.491Z,5.70
2018-06-05T06:51:15.375Z,5.40
2018-06-05T06:56:20.223Z,5.10
2018-06-05T07:01:25.071Z,4.90
2018-06-05T07:06:29.294Z,6.72
2018-06-05T07:11:34.281Z,6.62
2018-06-05T07:16:39.252Z,5.50
2018-06-05T07:21:43.980Z,5.95
2018-06-05T07:26:48.633Z,5.53
2018-06-05T07:31:53.473Z,6.25
2018-06-05T07:36:58.304Z,5.30
2018-06-05T07:42:03.151Z,7.15
2018-06-05T07:47:07.857Z,5.92
2018-06-05T07:52:12.568Z,6.33
2018-06-05T07:57:17.333Z,6.05
2018-06-05T08:02:22.080Z,5.92
2018-06-05T08:07:26.727Z,6.20
2018-06-05T08:12:31.535Z,6.22
2018-06-05T08:17:36.261Z,6.58
2018-06-05T08:22:56.609Z,6.33
2018-06-05T08:28:01.411Z,6.70
2018-06-05T08:33:06.776Z,6.65
2018-06-05T08:38:11.707Z,5.70
2018-06-05T08:43:16.460Z,6.33
2018-06-05T08:48:21.093Z,6.05
2018-06-05T08:53:26.933Z,5.85
2018-06-05T08:58:31.603Z,5.80
2018-06-05T09:03:36.360Z,6.20
2018-06-05T09:08:40.935Z,5.72
2018-06-05T09:13:46.832Z,5.58
2018-06-05T09:18:51.743Z,5.80
2018-06-05T09:23:56.592Z,5.33
2018-06-05T09:29:01.243Z,5.72
2018-06-05T09:34:05.844Z,5.42
2018-06-05T09:39:11.150Z,5.62
2018-06-05T09:44:15.971Z,5.10
2018-06-05T09:49:20.814Z,5.12
2018-06-05T09:54:25.504Z,5.00
2018-06-05T09:59:30.085Z,4.70
2018-06-05T10:04:34.652Z,4.72
2018-06-05T10:09:40.661Z,4.97
2018-06-05T10:14:45.487Z,5.70
2018-06-05T10:19:50.338Z,4.92
2018-06-05T10:24:55.027Z,4.17
2018-06-05T10:29:59.779Z,5.17
2018-06-05T10:35:05.032Z,5.25
2018-06-05T10:40:10.023Z,4.30
2018-06-05T10:45:14.804Z,4.28
2018-06-05T10:50:19.464Z,4.75
2018-06-05T10:55:24.703Z,4.17
2018-06-05T11:00:29.450Z,3.95
2018-06-05T11:05:34.175Z,4.08
2018-06-05T11:10:39.090Z,3.10
2018-06-05T11:15:43.949Z,2.87
2018-06-05T11:20:49.240Z,2.67
2018-06-05T11:25:54.597Z,3.15
2018-06-05T11:30:59.380Z,2.72
2018-06-05T11:36:04.141Z,2.90
2018-06-05T11:41:09.796Z,2.40
2018-06-05T11:46:14.430Z,2.90
2018-06-05T11:51:18.682Z,2.60
2018-06-05T11:56:24.069Z,3.33
2018-06-05T12:01:28.740Z,3.17
2018-06-05T12:06:33.483Z,2.80
2018-06-05T12:11:38.235Z,2.75
2018-06-05T12:16:43.151Z,2.15
2018-06-05T12:21:47.470Z,2.52
2018-06-05T12:26:52.213Z,1.75
2018-06-05T12:31:56.916Z,1.00
2018-06-05T12:37:01.688Z,1.37
2018-06-05T12:42:07.116Z,1.20
2018-06-05T12:47:11.737Z,1.37
2018-06-05T12:52:16.397Z,1.32
2018-06-05T12:57:21.128Z,1.32
2018-06-05T13:02:25.461Z,1.30
2018-06-05T13:07:30.196Z,1.40
2018-06-05T13:12:34.704Z,1.72
2018-06-05T13:17:39.600Z,1.70
2018-06-05T13:22:44.400Z,2.08
2018-06-05T13:27:49.112Z,2.02
2018-06-05T13:32:54.491Z,2.60
2018-06-05T13:37:59.542Z,2.42
2018-06-05T13:43:04.250Z,2.33
2018-06-05T13:48:09.114Z,1.80
2018-06-05T13:53:14.646Z,2.52
2018-06-05T13:58:19.361Z,2.55
2018-06-05T14:03:24.144Z,2.80
2018-06-05T14:08:29.059Z,2.60
2018-06-05T14:13:33.758Z,3.12
2018-06-05T14:18:38.526Z,2.85
2018-06-05T14:23:43.507Z,2.40
2018-06-05T14:28:49.103Z,2.90
2018-06-05T14:33:53.779Z,2.80
2018-06-05T14:38:58.922Z,3.20
2018-06-05T14:44:03.774Z,2.80
2018-06-05T14:49:09.317Z,2.75
2018-06-05T14:54:13.947Z,3.05
2018-06-05T14:59:18.658Z,2.95
2018-06-05T15:04:23.602Z,3.20
2018-06-05T15:09:29.181Z,2.95
2018-06-05T15:14:33.985Z,3.25
2018-06-05T15:19:38.959Z,3.60
2018-06-05T15:24:43.672Z,3.05
2018-06-05T15:29:48.287Z,3.60
2018-06-05T15:34:53.304Z,3.22
2018-06-05T15:39:57.774Z,3.22
2018-06-05T15:45:02.742Z,3.85
2018-06-05T15:50:07.371Z,3.85
2018-06-05T15:55:12.124Z,4.00
2018-06-05T16:00:17.389Z,3.40
2018-06-05T16:05:22.256Z,3.67
2018-06-05T16:10:27.249Z,3.35
2018-06-05T16:15:32.885Z,3.30
2018-06-05T16:20:37.867Z,3.02
2018-06-05T16:25:42.873Z,3.22
2018-06-05T16:30:49.139Z,3.27
2018-06-05T16:35:55.888Z,3.62
2018-06-05T16:41:00.796Z,3.62
2018-06-05T16:46:05.519Z,3.58
2018-06-05T16:51:10.461Z,3.37
2018-06-05T16:56:16.005Z,3.70
2018-06-05T17:01:20.727Z,3.80
2018-06-05T17:06:25.404Z,4.30
2018-06-05T17:11:30.314Z,3.52
2018-06-05T17:16:35.445Z,3.80
2018-06-05T17:21:40.456Z,4.00
2018-06-05T17:26:45.160Z,4.20
2018-06-05T17:31:50.119Z,4.37
2018-06-05T17:36:55.113Z,3.98
2018-06-05T17:42:00.160Z,4.42
2018-06-05T17:47:04.797Z,4.47
2018-06-05T17:52:09.683Z,3.62
2018-06-05T17:57:15.272Z,4.08
2018-06-05T18:02:20.849Z,4.33
2018-06-05T18:07:27.744Z,4.17
2018-06-05T18:12:32.443Z,4.55
2018-06-05T18:17:37.512Z,4.47
2018-06-05T18:22:42.243Z,4.17
2018-06-05T18:27:46.668Z,4.78
2018-06-05T18:32:52.364Z,4.42
2018-06-05T18:38:01.461Z,4.60
2018-06-05T18:43:10.110Z,5.22
2018-06-05T18:48:18.034Z,4.50
2018-06-05T18:53:27.207Z,4.72
2018-06-05T18:58:34.501Z,5.10
2018-06-05T19:03:39.386Z,4.92
2018-06-05T19:08:44.220Z,4.65
2018-06-05T19:13:49.091Z,4.87
2018-06-05T19:18:54.012Z,4.85
2018-06-05T19:23:59.471Z,5.20
2018-06-05T19:29:04.502Z,4.58
2018-06-05T19:34:09.559Z,5.10
2018-06-05T19:39:14.481Z,4.62
2018-06-05T19:44:19.327Z,4.58
2018-06-05T19:49:24.066Z,4.53
2018-06-05T19:54:28.777Z,4.55
2018-06-05T19:59:34.020Z,5.08
2018-06-05T20:04:38.711Z,4.50
2018-06-05T20:09:44.141Z,3.90
2018-06-05T20:14:48.837Z,3.98
2018-06-05T20:19:53.710Z,4.25
2018-06-05T20:24:58.473Z,4.30
2018-06-05T20:30:03.578Z,5.12
2018-06-05T20:35:08.376Z,4.65
2018-06-05T20:40:13.224Z,5.05
2018-06-05T20:45:18.707Z,4.05
2018-06-05T20:50:23.647Z,4.67
2018-06-05T20:55:28.381Z,4.78
2018-06-05T21:00:33.342Z,4.62
2018-06-05T21:05:38.039Z,5.12
2018-06-05T21:10:43.334Z,5.08
2018-06-05T21:15:48.106Z,5.20
2018-06-05T21:20:52.982Z,5.10
2018-06-05T21:25:58.435Z,4.42
2018-06-05T21:31:03.681Z,5.65
2018-06-05T21:36:08.414Z,5.20
2018-06-05T21:41:13.766Z,5.08
2018-06-05T21:46:19.323Z,4.95
2018-06-05T21:51:24.515Z,5.53
2018-06-05T21:56:29.190Z,5.00
2018-06-05T22:01:34.155Z,5.15
2018-06-05T22:06:38.902Z,5.70
2018-06-05T22:11:43.479Z,5.95
2018-06-05T22:16:48.491Z,6.10
2018-06-05T22:21:53.381Z,5.62
2018-06-05T22:26:58.032Z,5.40
2018-06-05T22:32:04.614Z,6.03
2018-06-05T22:37:09.228Z,4.97
2018-06-05T22:42:13.992Z,5.25
2018-06-05T22:47:18.924Z,5.35
2018-06-05T22:52:23.901Z,5.30
2018-06-05T22:57:31.372Z,5.28
2018-06-05T23:02:37.472Z,5.22
2018-06-05T23:07:43.478Z,5.58
2018-06-05T23:12:49.735Z,5.33
2018-06-05T23:17:54.394Z,5.95
2018-06-05T23:22:59.076Z,5.40
2018-06-05T23:28:04.076Z,6.17
2018-06-05T23:33:24.912Z,6.15
2018-06-05T23:38:30.577Z,5.70
2018-06-05T23:43:37.331Z,6.35
2018-06-05T23:48:43.352Z,6.42
2018-06-05T23:53:48.236Z,6.08
2018-06-05T23:59:00.141Z,5.70
